默认 日期 大小 文件数 浏览量 最新下载 xml
cohen磁力链接相关资源由用户搜索指令自动获取,结果来源于网络,本站不存储任何资料,亦不承担任何责任,请于24小时内删除,搜索到2184个磁力,用时2ms。
    {"0470929839_faster.epub": 1694003, "torrent download sites": {"Torrent downloaded from P2PDL.com.txt": 37, "torrent downloaded from kickass.to.txt": 35, "Torrent downloaded from AhaShare.com.txt": 59}}
创建时间: 2018-12-19 03:54:59 大小:1.62 MB 文件数量:4 热度:12 最近下载:2025-10-04 03:34:02
    {"01 -Suzanne.flac": 17956042, "09 -Teachers.flac": 15185145, "02 -Master Song.flac": 27820716, "03 -Winter Lady.flac": 9402542, "05 -Sisters of Mercy.flac": 16591721, "06 -So Long Marianne.flac": 29372694, "04- The Stranger Song.flac": 21927976, "08 - ...
创建时间: 2018-12-19 03:59:40 大小:183.74 MB 文件数量:10 热度:6 最近下载:2022-04-23 05:56:08
    {"Show Notes.nfo": 1027, "Torrent downloaded from Demonoid.com.txt": 47, "Sundance.Leonard Cohen I'm Your Man (2006).PDTV.XviD.Ekolb.avi": 916242432}
创建时间: 2018-12-19 04:02:34 大小:873.8 MB 文件数量:3 热度:9 最近下载:2025-05-28 19:28:02
    ... , "LeonardCohenOldIdeasCover.jpg": 653923, "05-Leonard Cohen - Anyhow.flac": 15173309, "09-Leonard ... Home.flac": 19930872, "07-Leonard Cohen - Come Healing.flac": 15728064, "10 ... -Leonard Cohen - Different Sides.flac": 24777072, "03 ...
创建时间: 2018-12-19 04:26:13 大小:219.65 MB 文件数量:13 热度:6 最近下载:2022-04-23 06:06:42
    ... Fan; The Songs Of Leonard Cohen By....log": 11619, "01 I ... Fan; The Songs Of Leonard Cohen By....cue": 3018, "01 I ... Fan; The Songs Of Leonard Cohen By....flac": 477204488, "I'm ... Fan [The Songs of Leonard Cohen by...] [va] [1991] [FLAC] [CodeTempest ...
创建时间: 2018-12-19 04:39:16 大小:605.5 MB 文件数量:21 热度:8 最近下载:2025-03-08 04:56:03
    {"COHEN 1.pdf": 69443855, "COHEN 2.pdf": 59652184, "COHEN 3.pdf": 55579712, "COHEN 4. ... pdf": 65179425, "COHEN 5 ... "COHEN 6.pdf": 65654540, "COHEN 7.pdf": 57839902, "COHEN 8.pdf": 61037312, "H. Cohen ...
创建时间: 2018-12-19 05:01:53 大小:475.61 MB 文件数量:9 热度:6 最近下载:2022-04-23 06:21:05
    {"pic.jpg": 3681055, "02 - Treaty.flac": 123235866, "03 - On The Level.flac": 123619068, "08 - Steer Your Way.flac": 151827794, "06 - Traveling Light.flac": 151200647, "Method and Information.txt": 791, "04 - Leaving The Table.flac": 121576534, "01 - You ...
创建时间: 2018-12-19 05:10:50 大小:1.12 GB 文件数量:12 热度:9 最近下载:2024-11-04 00:39:01
    {"RARBG.txt": 30, "Jimmy.Kimmel.Live.2018.11.06.Sacha.Baron.Cohen.Eric.Garcetti.Phosphorescent.720p.HULU.WEB-DL.AAC2.0.H.264-monkee.mkv": 836051031}
创建时间: 2018-12-19 05:25:52 大小:797.32 MB 文件数量:2 热度:7 最近下载:2024-11-13 22:37:01
    {"VIDEO_TS": {"VIDEO_TS.BUP": 8192, "VIDEO_TS.IFO": 8192, "VTS_01_0.BUP": 57344, "VTS_01_0.IFO": 57344, "VTS_01_0.VOB": 7880704, "VTS_01_1.VOB": 1073565696, "VTS_01_2.VOB": 1073565696, "VTS_01_3.VOB": 976695296}}
创建时间: 2018-12-19 06:13:08 大小:2.92 GB 文件数量:8 热度:5 最近下载:2022-04-09 06:35:48
    {"Torrent Downloaded From www.torrenting.me.txt": 72, "Leonard.Cohen.Im.Your.Man.2005.720p.WEB-DL.AAC2.0.H264-FGT.mkv": 3349783524, "Leonard.Cohen.Im.Your.Man.2005.720p.WEB-DL.AAC2.0.H264-FGT.nfo": 4838}
创建时间: 2018-12-19 07:45:52 大小:3.12 GB 文件数量:3 热度:6 最近下载:2025-02-22 11:29:02
    {"ANY!": {"mcmf.xml": 437, "DUPLICATE": {"mcmf.xml": 437, "MKB_RO.inf": 1048576, "MKB_RW.inf": 1048576, "Content000.cer": 200, "Unit_Key_RO.inf": 65536, "CPSUnit00001.cci": 2048, "ContentHash000.tbl": 880884, "ContentRevocation.lst": 1048576}, "MKB_RO.inf ...
创建时间: 2018-12-19 14:51:04 大小:20.17 GB 文件数量:62 热度:19 最近下载:2025-03-11 18:28:01
    {"free audiobook version_.txt": 427, "Quench_ Beat Fatigue, Drop Weight .. by Dana Cohen, G. Bria.epub": 2414846}
创建时间: 2018-12-19 15:33:59 大小:2.3 MB 文件数量:2 热度:11 最近下载:2025-02-28 15:57:02
    {"play.m3u": 264, "front.jpg": 398917, "foo_dr.txt": 1367, "booklet.pdf": 2542730, "09. Kefel.flac": 73061103, "front small.jpg": 97196, "08. Shlosre.flac": 83234246, "07. Hayo Hayta.flac": 129707344, "05. Arab Medley.flac": 94417276, "04. A Child Is Born. ...
创建时间: 2018-12-19 18:48:54 大小:915.08 MB 文件数量:15 热度:7 最近下载:2022-04-23 06:40:08
    ... {"Cover.jpg": 56753, "Leonard Cohen.jpg": 55233}, "Cover.jpg": 56753 ... .mp3": 8380395, "03 Leonard Cohen - Hallelujah.mp3": 9017324, ... mp3": 11581138, "31 Leonard Cohen - Different Sides.mp3": 7913964 ... mp3": 10257052, "28 Leonard Cohen - Closing Time (Live).mp3 ...
创建时间: 2018-12-19 18:55:19 大小:336.5 MB 文件数量:38 热度:6 最近下载:2022-04-23 06:05:41
    {"Extras": {"Duende.cue": 1466, "Duende.log": 9244, "Booklet.jpg": 23181707, "Inlay-Rear.jpg": 13300833, "Spectrogram.png": 325971}, "cover.jpg": 174391, "Duende.cue": 1468, "04 - Soof.flac": 16473162, "08 - Calm.flac": 13146744, "01 - Signature.flac": ...
创建时间: 2018-12-19 19:40:02 大小:168.76 MB 文件数量:16 热度:6 最近下载:2022-04-23 06:37:49
    ... ": 1282, "Spectrum.jpg": 261310, "Leonard Cohen - The Future.accurip": 1606, "Leonard ... Future.flac.png": 82403, "Leonard Cohen - The Future.flac.auCDtect.txt ... ": 1202}, "folder.jpg": 52338, "Leonard Cohen - The Future.cue": 1304, "Leonard ...
创建时间: 2018-12-19 21:08:58 大小:381.21 MB 文件数量:22 热度:7 最近下载:2022-11-12 08:40:00
    {"Adam Cohen.cue": 2312, "06 - Sister.flac": ... Cohen - Adam Cohen.jpg": 25033, "Adam Cohen - Adam Cohen.log": 28006, "Adam Cohen - Adam Cohen.m3u ...
创建时间: 2018-12-19 21:35:49 大小:332.82 MB 文件数量:17 热度:6 最近下载:2022-04-23 06:20:32
    ... .flac": 58513911, "Songs Of Leonard Cohen.cue": 3478, "08. Stories Of ...
创建时间: 2018-12-19 23:47:45 大小:399.2 MB 文件数量:20 热度:7 最近下载:2024-04-14 07:02:02
    {"Art": {"Back.jpg": 6670627, "Front.jpg": 4381433, "Label 1.jpg": 6408044, "Label 2.jpg": 4656575}, "label.jpg": 187970, "track.txt": 6246, "folder.jpg": 199218, "Recent notes.txt": 3749, "01 The Guests.flac": 136268005, "03 The WIndow.flac": 119410673, " ...
创建时间: 2018-12-20 00:46:19 大小:1.01 GB 文件数量:18 热度:8 最近下载:2024-10-24 23:49:02
    {"cosmid.18.12.12.katie.cohen.strips.on.the.bed[N1C].mp4": 377502917}
创建时间: 2018-12-20 00:59:05 大小:360.01 MB 文件数量:1 热度:7 最近下载:2025-03-03 01:00:01